sensor_id;sensor_type;location;lat;lon;timestamp;P1;durP1;ratioP1;P2;durP2;ratioP2
82646;SDS011;72325;41.910;22.404;2023-11-21T00:00:05;56.08;;;31.85;;
82646;SDS011;72325;41.910;22.404;2023-11-21T00:02:37;48.90;;;28.55;;
82646;SDS011;72325;41.910;22.404;2023-11-21T00:05:06;52.47;;;30.35;;
82646;SDS011;72325;41.910;22.404;2023-11-21T00:07:33;46.30;;;28.33;;
82646;SDS011;72325;41.910;22.404;2023-11-21T00:13:03;36.92;;;21.90;;
82646;SDS011;72325;41.910;22.404;2023-11-21T00:15:29;46.20;;;28.55;;
82646;SDS011;72325;41.910;22.404;2023-11-21T00:17:55;53.30;;;32.42;;
82646;SDS011;72325;41.910;22.404;2023-11-21T00:20:21;50.85;;;31.38;;
82646;SDS011;72325;41.910;22.404;2023-11-21T00:22:47;58.72;;;34.60;;
82646;SDS011;72325;41.910;22.404;2023-11-21T00:25:14;57.80;;;34.38;;
82646;SDS011;72325;41.910;22.404;2023-11-21T00:27:41;63.25;;;35.25;;
82646;SDS011;72325;41.910;22.404;2023-11-21T00:30:07;58.38;;;33.83;;
82646;SDS011;72325;41.910;22.404;2023-11-21T00:32:35;44.95;;;26.27;;
82646;SDS011;72325;41.910;22.404;2023-11-21T00:35:01;35.42;;;21.80;;
82646;SDS011;72325;41.910;22.404;2023-11-21T00:37:27;35.30;;;21.50;;
82646;SDS011;72325;41.910;22.404;2023-11-21T00:42:57;37.90;;;23.50;;
82646;SDS011;72325;41.910;22.404;2023-11-21T00:45:23;48.05;;;27.75;;
82646;SDS011;72325;41.910;22.404;2023-11-21T00:47:49;56.78;;;34.28;;
82646;SDS011;72325;41.910;22.404;2023-11-21T00:50:15;58.83;;;35.33;;
82646;SDS011;72325;41.910;22.404;2023-11-21T00:52:41;54.33;;;33.85;;
82646;SDS011;72325;41.910;22.404;2023-11-21T00:58:11;51.58;;;33.15;;
82646;SDS011;72325;41.910;22.404;2023-11-21T01:00:37;54.88;;;32.92;;
82646;SDS011;72325;41.910;22.404;2023-11-21T01:03:04;41.63;;;27.23;;
82646;SDS011;72325;41.910;22.404;2023-11-21T01:05:33;45.88;;;26.90;;
82646;SDS011;72325;41.910;22.404;2023-11-21T01:07:59;44.20;;;25.63;;
82646;SDS011;72325;41.910;22.404;2023-11-21T01:10:25;40.53;;;23.58;;
82646;SDS011;72325;41.910;22.404;2023-11-21T01:12:51;40.10;;;22.55;;
82646;SDS011;72325;41.910;22.404;2023-11-21T01:15:17;61.78;;;32.63;;
82646;SDS011;72325;41.910;22.404;2023-11-21T01:17:43;35.05;;;20.02;;
82646;SDS011;72325;41.910;22.404;2023-11-21T01:20:10;27.05;;;18.42;;
82646;SDS011;72325;41.910;22.404;2023-11-21T01:22:38;25.25;;;17.10;;
82646;SDS011;72325;41.910;22.404;2023-11-21T01:28:08;27.90;;;17.52;;
82646;SDS011;72325;41.910;22.404;2023-11-21T01:30:34;25.35;;;15.18;;
82646;SDS011;72325;41.910;22.404;2023-11-21T01:33:00;27.15;;;16.08;;
82646;SDS011;72325;41.910;22.404;2023-11-21T01:35:26;25.90;;;15.90;;
82646;SDS011;72325;41.910;22.404;2023-11-21T01:37:52;20.90;;;13.68;;
82646;SDS011;72325;41.910;22.404;2023-11-21T01:43:22;11.90;;;7.18;;
82646;SDS011;72325;41.910;22.404;2023-11-21T01:45:48;22.23;;;13.82;;
82646;SDS011;72325;41.910;22.404;2023-11-21T01:48:15;25.10;;;15.10;;
82646;SDS011;72325;41.910;22.404;2023-11-21T01:50:42;25.25;;;16.00;;
82646;SDS011;72325;41.910;22.404;2023-11-21T01:53:10;23.30;;;15.98;;
82646;SDS011;72325;41.910;22.404;2023-11-21T01:55:38;22.23;;;13.73;;
82646;SDS011;72325;41.910;22.404;2023-11-21T01:58:05;21.08;;;12.20;;
82646;SDS011;72325;41.910;22.404;2023-11-21T02:00:32;12.05;;;8.15;;
82646;SDS011;72325;41.910;22.404;2023-11-21T02:02:58;14.25;;;7.55;;
82646;SDS011;72325;41.910;22.404;2023-11-21T02:05:24;12.38;;;6.35;;
82646;SDS011;72325;41.910;22.404;2023-11-21T02:07:51;8.05;;;5.47;;
82646;SDS011;72325;41.910;22.404;2023-11-21T02:13:21;19.92;;;11.82;;
82646;SDS011;72325;41.910;22.404;2023-11-21T02:15:47;21.75;;;14.60;;
82646;SDS011;72325;41.910;22.404;2023-11-21T02:18:14;26.83;;;15.68;;
82646;SDS011;72325;41.910;22.404;2023-11-21T02:20:41;26.08;;;15.52;;
82646;SDS011;72325;41.910;22.404;2023-11-21T02:23:07;18.95;;;11.90;;
82646;SDS011;72325;41.910;22.404;2023-11-21T02:25:33;17.17;;;10.35;;
82646;SDS011;72325;41.910;22.404;2023-11-21T02:28:02;12.75;;;8.10;;
82646;SDS011;72325;41.910;22.404;2023-11-21T02:30:29;16.90;;;9.32;;
82646;SDS011;72325;41.910;22.404;2023-11-21T02:32:58;10.50;;;6.75;;
82646;SDS011;72325;41.910;22.404;2023-11-21T02:35:25;12.80;;;6.97;;
82646;SDS011;72325;41.910;22.404;2023-11-21T02:37:51;12.70;;;7.50;;
82646;SDS011;72325;41.910;22.404;2023-11-21T02:43:21;10.77;;;7.10;;
82646;SDS011;72325;41.910;22.404;2023-11-21T02:45:47;12.10;;;7.38;;
82646;SDS011;72325;41.910;22.404;2023-11-21T02:48:13;13.32;;;7.53;;
82646;SDS011;72325;41.910;22.404;2023-11-21T02:50:39;11.85;;;7.18;;
82646;SDS011;72325;41.910;22.404;2023-11-21T02:53:05;10.98;;;6.93;;
82646;SDS011;72325;41.910;22.404;2023-11-21T02:58:34;21.63;;;13.73;;
82646;SDS011;72325;41.910;22.404;2023-11-21T03:01:01;23.63;;;14.48;;
82646;SDS011;72325;41.910;22.404;2023-11-21T03:03:27;20.33;;;13.57;;
82646;SDS011;72325;41.910;22.404;2023-11-21T03:05:53;21.40;;;12.80;;
82646;SDS011;72325;41.910;22.404;2023-11-21T03:08:19;16.08;;;10.85;;
82646;SDS011;72325;41.910;22.404;2023-11-21T03:10:46;16.33;;;9.88;;
82646;SDS011;72325;41.910;22.404;2023-11-21T03:13:12;20.45;;;11.27;;
82646;SDS011;72325;41.910;22.404;2023-11-21T03:15:38;18.75;;;10.98;;
82646;SDS011;72325;41.910;22.404;2023-11-21T03:18:04;13.63;;;8.90;;
82646;SDS011;72325;41.910;22.404;2023-11-21T03:20:30;16.33;;;9.98;;
82646;SDS011;72325;41.910;22.404;2023-11-21T03:22:56;11.55;;;7.75;;
82646;SDS011;72325;41.910;22.404;2023-11-21T03:28:27;13.50;;;8.85;;
82646;SDS011;72325;41.910;22.404;2023-11-21T03:30:55;17.58;;;10.30;;
82646;SDS011;72325;41.910;22.404;2023-11-21T03:33:21;20.13;;;11.05;;
82646;SDS011;72325;41.910;22.404;2023-11-21T03:35:48;19.73;;;11.57;;
82646;SDS011;72325;41.910;22.404;2023-11-21T03:38:14;17.10;;;10.70;;
82646;SDS011;72325;41.910;22.404;2023-11-21T03:40:41;17.63;;;10.82;;
82646;SDS011;72325;41.910;22.404;2023-11-21T03:43:07;20.13;;;10.98;;
82646;SDS011;72325;41.910;22.404;2023-11-21T03:45:33;21.52;;;13.77;;
82646;SDS011;72325;41.910;22.404;2023-11-21T03:47:59;20.33;;;13.45;;
82646;SDS011;72325;41.910;22.404;2023-11-21T03:50:28;27.15;;;16.10;;
82646;SDS011;72325;41.910;22.404;2023-11-21T03:52:54;26.17;;;15.95;;
82646;SDS011;72325;41.910;22.404;2023-11-21T03:58:23;27.38;;;16.40;;
82646;SDS011;72325;41.910;22.404;2023-11-21T04:00:49;21.27;;;14.48;;
82646;SDS011;72325;41.910;22.404;2023-11-21T04:03:15;22.02;;;14.10;;
82646;SDS011;72325;41.910;22.404;2023-11-21T04:05:41;22.00;;;14.25;;
82646;SDS011;72325;41.910;22.404;2023-11-21T04:08:08;22.45;;;13.93;;
82646;SDS011;72325;41.910;22.404;2023-11-21T04:13:38;23.33;;;13.63;;
82646;SDS011;72325;41.910;22.404;2023-11-21T04:16:05;22.70;;;16.65;;
82646;SDS011;72325;41.910;22.404;2023-11-21T04:18:31;21.98;;;14.13;;
82646;SDS011;72325;41.910;22.404;2023-11-21T04:20:58;19.67;;;13.10;;
82646;SDS011;72325;41.910;22.404;2023-11-21T04:23:24;19.88;;;13.13;;
82646;SDS011;72325;41.910;22.404;2023-11-21T04:25:50;19.90;;;13.30;;
82646;SDS011;72325;41.910;22.404;2023-11-21T04:28:19;28.13;;;16.65;;
82646;SDS011;72325;41.910;22.404;2023-11-21T04:30:45;24.67;;;16.38;;
82646;SDS011;72325;41.910;22.404;2023-11-21T04:33:11;23.83;;;16.70;;
82646;SDS011;72325;41.910;22.404;2023-11-21T04:35:37;68.95;;;33.28;;
82646;SDS011;72325;41.910;22.404;2023-11-21T04:38:03;46.70;;;24.65;;
82646;SDS011;72325;41.910;22.404;2023-11-21T04:43:33;30.83;;;16.33;;
82646;SDS011;72325;41.910;22.404;2023-11-21T04:45:59;29.15;;;16.38;;
82646;SDS011;72325;41.910;22.404;2023-11-21T04:48:27;31.77;;;17.67;;
82646;SDS011;72325;41.910;22.404;2023-11-21T04:50:53;25.33;;;14.60;;
82646;SDS011;72325;41.910;22.404;2023-11-21T04:53:19;26.55;;;14.30;;
82646;SDS011;72325;41.910;22.404;2023-11-21T04:58:48;33.38;;;20.02;;
82646;SDS011;72325;41.910;22.404;2023-11-21T05:01:14;33.30;;;20.98;;
82646;SDS011;72325;41.910;22.404;2023-11-21T05:03:41;33.13;;;20.55;;
82646;SDS011;72325;41.910;22.404;2023-11-21T05:06:09;34.22;;;22.25;;
82646;SDS011;72325;41.910;22.404;2023-11-21T05:08:35;30.73;;;18.65;;
82646;SDS011;72325;41.910;22.404;2023-11-21T05:11:03;32.28;;;20.25;;
82646;SDS011;72325;41.910;22.404;2023-11-21T05:13:29;26.70;;;18.70;;
82646;SDS011;72325;41.910;22.404;2023-11-21T05:15:55;29.67;;;19.83;;
82646;SDS011;72325;41.910;22.404;2023-11-21T05:18:24;35.40;;;23.17;;
82646;SDS011;72325;41.910;22.404;2023-11-21T05:20:52;29.65;;;19.52;;
82646;SDS011;72325;41.910;22.404;2023-11-21T05:23:18;28.52;;;19.48;;
82646;SDS011;72325;41.910;22.404;2023-11-21T05:28:48;36.38;;;19.77;;
82646;SDS011;72325;41.910;22.404;2023-11-21T05:31:15;29.92;;;16.90;;
82646;SDS011;72325;41.910;22.404;2023-11-21T05:33:41;28.38;;;17.73;;
82646;SDS011;72325;41.910;22.404;2023-11-21T05:36:07;32.33;;;17.63;;
82646;SDS011;72325;41.910;22.404;2023-11-21T05:38:35;33.83;;;21.50;;
82646;SDS011;72325;41.910;22.404;2023-11-21T05:44:24;40.22;;;25.58;;
82646;SDS011;72325;41.910;22.404;2023-11-21T05:46:50;50.97;;;28.70;;
82646;SDS011;72325;41.910;22.404;2023-11-21T05:49:16;52.58;;;31.00;;
82646;SDS011;72325;41.910;22.404;2023-11-21T05:51:42;45.97;;;29.63;;
82646;SDS011;72325;41.910;22.404;2023-11-21T05:54:08;47.78;;;30.65;;
82646;SDS011;72325;41.910;22.404;2023-11-21T05:56:34;58.80;;;32.75;;
82646;SDS011;72325;41.910;22.404;2023-11-21T05:59:00;47.10;;;29.70;;
82646;SDS011;72325;41.910;22.404;2023-11-21T06:01:28;72.30;;;40.08;;
82646;SDS011;72325;41.910;22.404;2023-11-21T06:03:54;179.02;;;88.43;;
82646;SDS011;72325;41.910;22.404;2023-11-21T06:06:21;155.07;;;82.18;;
82646;SDS011;72325;41.910;22.404;2023-11-21T06:08:50;101.03;;;51.97;;
82646;SDS011;72325;41.910;22.404;2023-11-21T06:11:17;65.80;;;39.33;;
82646;SDS011;72325;41.910;22.404;2023-11-21T06:13:43;45.88;;;30.25;;
82646;SDS011;72325;41.910;22.404;2023-11-21T06:16:09;28.17;;;19.85;;
82646;SDS011;72325;41.910;22.404;2023-11-21T06:18:38;25.77;;;17.88;;
82646;SDS011;72325;41.910;22.404;2023-11-21T06:21:05;26.75;;;17.15;;
82646;SDS011;72325;41.910;22.404;2023-11-21T06:23:31;20.70;;;14.40;;
82646;SDS011;72325;41.910;22.404;2023-11-21T06:29:00;17.75;;;12.55;;
82646;SDS011;72325;41.910;22.404;2023-11-21T06:31:28;27.95;;;17.85;;
82646;SDS011;72325;41.910;22.404;2023-11-21T06:33:54;30.90;;;19.50;;
82646;SDS011;72325;41.910;22.404;2023-11-21T06:36:20;31.55;;;20.98;;
82646;SDS011;72325;41.910;22.404;2023-11-21T06:38:46;35.58;;;23.67;;
82646;SDS011;72325;41.910;22.404;2023-11-21T06:44:34;58.05;;;36.85;;
82646;SDS011;72325;41.910;22.404;2023-11-21T06:47:02;40.90;;;27.88;;
82646;SDS011;72325;41.910;22.404;2023-11-21T06:49:28;35.25;;;24.55;;
82646;SDS011;72325;41.910;22.404;2023-11-21T06:51:54;42.55;;;25.02;;
82646;SDS011;72325;41.910;22.404;2023-11-21T06:54:21;36.17;;;24.30;;
82646;SDS011;72325;41.910;22.404;2023-11-21T06:56:49;42.83;;;27.45;;
82646;SDS011;72325;41.910;22.404;2023-11-21T06:59:15;46.15;;;30.90;;
82646;SDS011;72325;41.910;22.404;2023-11-21T07:01:41;49.17;;;31.73;;
82646;SDS011;72325;41.910;22.404;2023-11-21T07:04:08;78.05;;;43.97;;
82646;SDS011;72325;41.910;22.404;2023-11-21T07:06:35;53.17;;;31.48;;
82646;SDS011;72325;41.910;22.404;2023-11-21T07:09:03;28.17;;;20.42;;
82646;SDS011;72325;41.910;22.404;2023-11-21T07:11:29;24.05;;;16.70;;
82646;SDS011;72325;41.910;22.404;2023-11-21T07:13:55;23.08;;;16.83;;
82646;SDS011;72325;41.910;22.404;2023-11-21T07:16:21;24.70;;;15.68;;
82646;SDS011;72325;41.910;22.404;2023-11-21T07:18:48;18.77;;;14.00;;
82646;SDS011;72325;41.910;22.404;2023-11-21T07:21:14;20.15;;;15.27;;
82646;SDS011;72325;41.910;22.404;2023-11-21T07:23:41;18.60;;;12.60;;
82646;SDS011;72325;41.910;22.404;2023-11-21T07:29:11;20.50;;;14.10;;
82646;SDS011;72325;41.910;22.404;2023-11-21T07:31:38;23.60;;;15.98;;
82646;SDS011;72325;41.910;22.404;2023-11-21T07:34:06;19.90;;;13.73;;
82646;SDS011;72325;41.910;22.404;2023-11-21T07:36:33;17.67;;;12.32;;
82646;SDS011;72325;41.910;22.404;2023-11-21T07:38:59;18.17;;;11.00;;
82646;SDS011;72325;41.910;22.404;2023-11-21T07:44:31;21.15;;;12.10;;
82646;SDS011;72325;41.910;22.404;2023-11-21T07:46:57;16.88;;;11.50;;
82646;SDS011;72325;41.910;22.404;2023-11-21T07:49:23;17.60;;;12.02;;
82646;SDS011;72325;41.910;22.404;2023-11-21T07:51:50;16.02;;;12.32;;
82646;SDS011;72325;41.910;22.404;2023-11-21T07:54:16;17.55;;;11.70;;
82646;SDS011;72325;41.910;22.404;2023-11-21T07:56:42;20.77;;;12.13;;
82646;SDS011;72325;41.910;22.404;2023-11-21T07:59:08;15.82;;;11.77;;
82646;SDS011;72325;41.910;22.404;2023-11-21T08:01:34;16.40;;;10.98;;
82646;SDS011;72325;41.910;22.404;2023-11-21T08:04:00;15.45;;;11.55;;
82646;SDS011;72325;41.910;22.404;2023-11-21T08:06:28;16.83;;;11.80;;
82646;SDS011;72325;41.910;22.404;2023-11-21T08:08:55;17.17;;;13.02;;
82646;SDS011;72325;41.910;22.404;2023-11-21T08:14:25;19.98;;;13.60;;
82646;SDS011;72325;41.910;22.404;2023-11-21T08:16:51;17.17;;;12.35;;
82646;SDS011;72325;41.910;22.404;2023-11-21T08:19:17;16.88;;;12.20;;
82646;SDS011;72325;41.910;22.404;2023-11-21T08:21:43;16.30;;;11.10;;
82646;SDS011;72325;41.910;22.404;2023-11-21T08:24:10;14.27;;;10.27;;
82646;SDS011;72325;41.910;22.404;2023-11-21T08:29:40;20.58;;;12.65;;
82646;SDS011;72325;41.910;22.404;2023-11-21T08:32:07;20.20;;;11.20;;
82646;SDS011;72325;41.910;22.404;2023-11-21T08:34:33;12.95;;;8.27;;
82646;SDS011;72325;41.910;22.404;2023-11-21T08:36:59;25.42;;;13.50;;
82646;SDS011;72325;41.910;22.404;2023-11-21T08:39:25;21.58;;;13.60;;
82646;SDS011;72325;41.910;22.404;2023-11-21T08:44:55;25.80;;;17.15;;
82646;SDS011;72325;41.910;22.404;2023-11-21T08:47:25;22.17;;;16.27;;
82646;SDS011;72325;41.910;22.404;2023-11-21T08:49:51;23.00;;;17.48;;
82646;SDS011;72325;41.910;22.404;2023-11-21T08:52:18;29.92;;;20.15;;
82646;SDS011;72325;41.910;22.404;2023-11-21T08:54:48;32.15;;;21.30;;
82646;SDS011;72325;41.910;22.404;2023-11-21T08:57:21;31.98;;;22.27;;
82646;SDS011;72325;41.910;22.404;2023-11-21T08:59:47;35.22;;;23.70;;
82646;SDS011;72325;41.910;22.404;2023-11-21T09:02:13;35.30;;;24.33;;
82646;SDS011;72325;41.910;22.404;2023-11-21T09:04:39;34.20;;;23.38;;
82646;SDS011;72325;41.910;22.404;2023-11-21T09:07:05;36.33;;;24.83;;
82646;SDS011;72325;41.910;22.404;2023-11-21T09:09:31;35.40;;;24.60;;
82646;SDS011;72325;41.910;22.404;2023-11-21T09:15:07;57.58;;;34.20;;
82646;SDS011;72325;41.910;22.404;2023-11-21T09:17:34;37.47;;;25.98;;
82646;SDS011;72325;41.910;22.404;2023-11-21T09:20:01;45.42;;;27.85;;
82646;SDS011;72325;41.910;22.404;2023-11-21T09:22:30;22.85;;;14.10;;
82646;SDS011;72325;41.910;22.404;2023-11-21T09:24:56;27.35;;;17.13;;
82646;SDS011;72325;41.910;22.404;2023-11-21T09:27:23;29.05;;;18.25;;
82646;SDS011;72325;41.910;22.404;2023-11-21T09:29:50;28.48;;;19.45;;
82646;SDS011;72325;41.910;22.404;2023-11-21T09:32:17;30.90;;;21.13;;
82646;SDS011;72325;41.910;22.404;2023-11-21T09:34:46;37.10;;;23.23;;
82646;SDS011;72325;41.910;22.404;2023-11-21T09:37:12;25.35;;;18.02;;
82646;SDS011;72325;41.910;22.404;2023-11-21T09:39:38;24.35;;;17.00;;
82646;SDS011;72325;41.910;22.404;2023-11-21T09:45:15;24.10;;;16.27;;
82646;SDS011;72325;41.910;22.404;2023-11-21T09:47:44;25.70;;;16.15;;
82646;SDS011;72325;41.910;22.404;2023-11-21T09:50:11;26.83;;;17.35;;
82646;SDS011;72325;41.910;22.404;2023-11-21T09:55:30;27.38;;;15.82;;
82646;SDS011;72325;41.910;22.404;2023-11-21T09:58:01;26.55;;;16.20;;
82646;SDS011;72325;41.910;22.404;2023-11-21T10:00:28;27.65;;;16.98;;
82646;SDS011;72325;41.910;22.404;2023-11-21T10:02:57;21.10;;;13.75;;
82646;SDS011;72325;41.910;22.404;2023-11-21T10:05:24;25.33;;;14.15;;
82646;SDS011;72325;41.910;22.404;2023-11-21T10:07:50;21.17;;;13.63;;
82646;SDS011;72325;41.910;22.404;2023-11-21T10:10:17;17.65;;;12.77;;
82646;SDS011;72325;41.910;22.404;2023-11-21T10:12:45;17.17;;;12.02;;
82646;SDS011;72325;41.910;22.404;2023-11-21T10:15:14;17.70;;;12.60;;
82646;SDS011;72325;41.910;22.404;2023-11-21T10:17:41;16.23;;;11.32;;
82646;SDS011;72325;41.910;22.404;2023-11-21T10:20:13;16.95;;;11.07;;
82646;SDS011;72325;41.910;22.404;2023-11-21T10:22:42;13.85;;;10.48;;
82646;SDS011;72325;41.910;22.404;2023-11-21T10:25:09;13.63;;;11.57;;
82646;SDS011;72325;41.910;22.404;2023-11-21T10:27:36;16.13;;;11.65;;
82646;SDS011;72325;41.910;22.404;2023-11-21T10:30:06;16.98;;;13.38;;
82646;SDS011;72325;41.910;22.404;2023-11-21T10:32:33;16.63;;;12.10;;
82646;SDS011;72325;41.910;22.404;2023-11-21T10:34:59;14.68;;;10.60;;
82646;SDS011;72325;41.910;22.404;2023-11-21T10:37:27;14.13;;;10.32;;
82646;SDS011;72325;41.910;22.404;2023-11-21T10:39:57;16.55;;;11.48;;
82646;SDS011;72325;41.910;22.404;2023-11-21T10:45:27;24.30;;;16.15;;
82646;SDS011;72325;41.910;22.404;2023-11-21T10:47:54;16.48;;;12.88;;
82646;SDS011;72325;41.910;22.404;2023-11-21T10:50:21;17.45;;;10.77;;
82646;SDS011;72325;41.910;22.404;2023-11-21T10:52:47;15.23;;;10.98;;
82646;SDS011;72325;41.910;22.404;2023-11-21T11:01:33;15.73;;;10.73;;
82646;SDS011;72325;41.910;22.404;2023-11-21T11:04:00;16.38;;;11.38;;
82646;SDS011;72325;41.910;22.404;2023-11-21T11:06:26;23.13;;;14.45;;
82646;SDS011;72325;41.910;22.404;2023-11-21T11:08:54;17.13;;;11.85;;
82646;SDS011;72325;41.910;22.404;2023-11-21T11:11:20;22.25;;;15.98;;
82646;SDS011;72325;41.910;22.404;2023-11-21T11:13:46;24.00;;;15.30;;
82646;SDS011;72325;41.910;22.404;2023-11-21T11:16:12;19.73;;;13.35;;
82646;SDS011;72325;41.910;22.404;2023-11-21T11:18:42;21.80;;;15.10;;
82646;SDS011;72325;41.910;22.404;2023-11-21T11:31:30;26.55;;;18.27;;
82646;SDS011;72325;41.910;22.404;2023-11-21T11:36:47;25.40;;;16.42;;
82646;SDS011;72325;41.910;22.404;2023-11-21T11:39:30;19.50;;;11.90;;
82646;SDS011;72325;41.910;22.404;2023-11-21T11:41:57;17.30;;;12.73;;
82646;SDS011;72325;41.910;22.404;2023-11-21T11:47:13;16.55;;;9.88;;
82646;SDS011;72325;41.910;22.404;2023-11-21T11:49:54;29.65;;;17.75;;
82646;SDS011;72325;41.910;22.404;2023-11-21T11:54:47;19.33;;;13.00;;
82646;SDS011;72325;41.910;22.404;2023-11-21T11:57:14;22.08;;;15.27;;
82646;SDS011;72325;41.910;22.404;2023-11-21T12:02:57;23.95;;;15.27;;
82646;SDS011;72325;41.910;22.404;2023-11-21T12:05:24;21.92;;;16.83;;
82646;SDS011;72325;41.910;22.404;2023-11-21T12:07:55;20.52;;;14.68;;
82646;SDS011;72325;41.910;22.404;2023-11-21T12:10:26;23.77;;;15.43;;
82646;SDS011;72325;41.910;22.404;2023-11-21T12:15:48;20.90;;;15.60;;
82646;SDS011;72325;41.910;22.404;2023-11-21T12:18:14;24.55;;;17.58;;
82646;SDS011;72325;41.910;22.404;2023-11-21T12:20:40;27.95;;;20.40;;
82646;SDS011;72325;41.910;22.404;2023-11-21T12:23:08;18.70;;;12.30;;
82646;SDS011;72325;41.910;22.404;2023-11-21T12:25:35;14.20;;;10.90;;
82646;SDS011;72325;41.910;22.404;2023-11-21T12:28:02;15.85;;;11.63;;
82646;SDS011;72325;41.910;22.404;2023-11-21T12:30:29;18.27;;;14.15;;
82646;SDS011;72325;41.910;22.404;2023-11-21T12:32:57;16.67;;;11.25;;
82646;SDS011;72325;41.910;22.404;2023-11-21T12:35:27;18.65;;;12.98;;
82646;SDS011;72325;41.910;22.404;2023-11-21T12:37:54;14.10;;;10.60;;
82646;SDS011;72325;41.910;22.404;2023-11-21T12:40:22;16.83;;;12.18;;
82646;SDS011;72325;41.910;22.404;2023-11-21T12:42:49;13.88;;;10.63;;
82646;SDS011;72325;41.910;22.404;2023-11-21T12:47:49;24.38;;;14.90;;
82646;SDS011;72325;41.910;22.404;2023-11-21T12:50:18;29.42;;;15.65;;
82646;SDS011;72325;41.910;22.404;2023-11-21T12:52:46;26.52;;;14.50;;
82646;SDS011;72325;41.910;22.404;2023-11-21T12:55:16;26.98;;;15.75;;
82646;SDS011;72325;41.910;22.404;2023-11-21T12:57:43;21.90;;;13.77;;
82646;SDS011;72325;41.910;22.404;2023-11-21T13:00:09;14.30;;;9.25;;
82646;SDS011;72325;41.910;22.404;2023-11-21T13:02:40;14.48;;;11.88;;
82646;SDS011;72325;41.910;22.404;2023-11-21T13:05:07;19.20;;;11.77;;
82646;SDS011;72325;41.910;22.404;2023-11-21T13:07:43;15.13;;;11.00;;
82646;SDS011;72325;41.910;22.404;2023-11-21T13:10:12;12.77;;;10.05;;
82646;SDS011;72325;41.910;22.404;2023-11-21T13:12:45;20.67;;;15.70;;
82646;SDS011;72325;41.910;22.404;2023-11-21T13:15:16;18.65;;;12.23;;
82646;SDS011;72325;41.910;22.404;2023-11-21T13:17:43;25.27;;;16.23;;
82646;SDS011;72325;41.910;22.404;2023-11-21T13:20:13;29.17;;;17.17;;
82646;SDS011;72325;41.910;22.404;2023-11-21T13:22:51;34.05;;;19.25;;
82646;SDS011;72325;41.910;22.404;2023-11-21T13:25:25;29.15;;;20.15;;
82646;SDS011;72325;41.910;22.404;2023-11-21T13:27:56;29.17;;;19.25;;
82646;SDS011;72325;41.910;22.404;2023-11-21T13:30:23;24.23;;;19.50;;
82646;SDS011;72325;41.910;22.404;2023-11-21T13:32:58;27.60;;;19.83;;
82646;SDS011;72325;41.910;22.404;2023-11-21T13:35:30;28.23;;;18.25;;
82646;SDS011;72325;41.910;22.404;2023-11-21T13:38:07;23.83;;;19.10;;
82646;SDS011;72325;41.910;22.404;2023-11-21T13:40:34;26.67;;;17.63;;
82646;SDS011;72325;41.910;22.404;2023-11-21T13:43:07;27.60;;;20.20;;
82646;SDS011;72325;41.910;22.404;2023-11-21T13:45:38;21.55;;;16.15;;
82646;SDS011;72325;41.910;22.404;2023-11-21T13:48:05;30.00;;;19.48;;
82646;SDS011;72325;41.910;22.404;2023-11-21T13:50:35;29.45;;;20.13;;
82646;SDS011;72325;41.910;22.404;2023-11-21T13:53:01;29.30;;;19.40;;
82646;SDS011;72325;41.910;22.404;2023-11-21T13:55:46;24.52;;;17.55;;
82646;SDS011;72325;41.910;22.404;2023-11-21T13:58:14;32.08;;;23.05;;
82646;SDS011;72325;41.910;22.404;2023-11-21T14:00:47;28.08;;;20.65;;
82646;SDS011;72325;41.910;22.404;2023-11-21T14:03:20;46.25;;;28.52;;
82646;SDS011;72325;41.910;22.404;2023-11-21T14:05:47;44.92;;;31.38;;
82646;SDS011;72325;41.910;22.404;2023-11-21T14:08:19;29.42;;;21.05;;
82646;SDS011;72325;41.910;22.404;2023-11-21T14:10:46;29.35;;;20.33;;
82646;SDS011;72325;41.910;22.404;2023-11-21T14:13:18;25.83;;;18.25;;
82646;SDS011;72325;41.910;22.404;2023-11-21T14:15:46;28.35;;;19.88;;
82646;SDS011;72325;41.910;22.404;2023-11-21T14:18:15;33.88;;;23.88;;
82646;SDS011;72325;41.910;22.404;2023-11-21T14:20:43;33.45;;;25.60;;
82646;SDS011;72325;41.910;22.404;2023-11-21T14:23:09;28.38;;;21.67;;
82646;SDS011;72325;41.910;22.404;2023-11-21T14:25:36;29.30;;;20.65;;
82646;SDS011;72325;41.910;22.404;2023-11-21T14:28:05;27.02;;;20.38;;
82646;SDS011;72325;41.910;22.404;2023-11-21T14:30:32;30.73;;;22.45;;
82646;SDS011;72325;41.910;22.404;2023-11-21T14:33:01;26.20;;;17.50;;
82646;SDS011;72325;41.910;22.404;2023-11-21T14:35:27;29.35;;;19.83;;
82646;SDS011;72325;41.910;22.404;2023-11-21T14:37:57;31.35;;;21.27;;
82646;SDS011;72325;41.910;22.404;2023-11-21T14:40:23;31.27;;;21.42;;
82646;SDS011;72325;41.910;22.404;2023-11-21T14:42:52;32.28;;;21.83;;
82646;SDS011;72325;41.910;22.404;2023-11-21T14:45:19;49.47;;;31.80;;
82646;SDS011;72325;41.910;22.404;2023-11-21T14:47:48;59.30;;;40.85;;
82646;SDS011;72325;41.910;22.404;2023-11-21T14:50:25;63.40;;;38.08;;
82646;SDS011;72325;41.910;22.404;2023-11-21T14:55:33;58.75;;;36.25;;
82646;SDS011;72325;41.910;22.404;2023-11-21T14:58:14;44.65;;;30.13;;
82646;SDS011;72325;41.910;22.404;2023-11-21T15:00:45;46.53;;;30.25;;
82646;SDS011;72325;41.910;22.404;2023-11-21T15:03:11;45.15;;;31.70;;
82646;SDS011;72325;41.910;22.404;2023-11-21T15:08:37;33.10;;;21.67;;
82646;SDS011;72325;41.910;22.404;2023-11-21T15:11:03;36.45;;;26.27;;
82646;SDS011;72325;41.910;22.404;2023-11-21T15:13:32;41.42;;;28.58;;
82646;SDS011;72325;41.910;22.404;2023-11-21T15:15:58;41.38;;;30.75;;
82646;SDS011;72325;41.910;22.404;2023-11-21T15:18:32;49.83;;;34.80;;
82646;SDS011;72325;41.910;22.404;2023-11-21T15:21:00;45.10;;;32.72;;
82646;SDS011;72325;41.910;22.404;2023-11-21T15:23:28;50.90;;;33.25;;
82646;SDS011;72325;41.910;22.404;2023-11-21T15:25:56;78.55;;;50.58;;
82646;SDS011;72325;41.910;22.404;2023-11-21T15:28:22;96.25;;;69.10;;
82646;SDS011;72325;41.910;22.404;2023-11-21T15:30:49;117.78;;;80.93;;
82646;SDS011;72325;41.910;22.404;2023-11-21T15:33:17;106.07;;;73.53;;
82646;SDS011;72325;41.910;22.404;2023-11-21T15:35:43;89.13;;;57.97;;
82646;SDS011;72325;41.910;22.404;2023-11-21T15:38:09;85.40;;;59.10;;
82646;SDS011;72325;41.910;22.404;2023-11-21T15:40:35;84.85;;;58.72;;
82646;SDS011;72325;41.910;22.404;2023-11-21T15:43:02;73.38;;;51.38;;
82646;SDS011;72325;41.910;22.404;2023-11-21T15:45:28;66.65;;;43.17;;
82646;SDS011;72325;41.910;22.404;2023-11-21T15:47:54;76.22;;;50.28;;
82646;SDS011;72325;41.910;22.404;2023-11-21T15:50:23;83.63;;;54.78;;
82646;SDS011;72325;41.910;22.404;2023-11-21T15:52:50;77.75;;;53.67;;
82646;SDS011;72325;41.910;22.404;2023-11-21T15:55:16;89.60;;;59.67;;
82646;SDS011;72325;41.910;22.404;2023-11-21T15:57:43;80.80;;;55.25;;
82646;SDS011;72325;41.910;22.404;2023-11-21T16:00:09;46.13;;;32.35;;
82646;SDS011;72325;41.910;22.404;2023-11-21T16:02:42;51.15;;;33.42;;
82646;SDS011;72325;41.910;22.404;2023-11-21T16:05:08;45.10;;;29.92;;
82646;SDS011;72325;41.910;22.404;2023-11-21T16:07:35;39.60;;;25.13;;